createdAt,value
2023-01-11T00:01:50.021Z,6.15
2023-01-11T00:04:19.309Z,6.37
2023-01-11T00:06:47.672Z,6.35
2023-01-11T00:09:17.063Z,6.35
2023-01-11T00:11:44.797Z,6.33
2023-01-11T00:14:12.608Z,6.30
2023-01-11T00:16:40.648Z,6.26
2023-01-11T00:19:08.549Z,6.29
2023-01-11T00:21:37.684Z,6.23
2023-01-11T00:24:06.520Z,6.28
2023-01-11T00:26:34.372Z,6.15
2023-01-11T00:29:02.119Z,6.16
2023-01-11T00:31:29.887Z,6.19
2023-01-11T00:33:58.275Z,6.27
2023-01-11T00:36:26.101Z,6.38
2023-01-11T00:38:55.510Z,6.43
2023-01-11T00:41:41.926Z,6.42
2023-01-11T00:44:29.058Z,6.51
2023-01-11T00:47:15.225Z,6.44
2023-01-11T00:49:43.760Z,6.46
2023-01-11T00:52:12.006Z,6.51
2023-01-11T00:54:43.018Z,6.58
2023-01-11T00:57:10.981Z,6.60
2023-01-11T00:59:40.573Z,6.57
2023-01-11T01:02:09.319Z,6.44
2023-01-11T01:04:37.117Z,6.26
2023-01-11T01:07:05.427Z,6.14
2023-01-11T01:09:33.778Z,6.18
2023-01-11T01:12:03.133Z,6.29
2023-01-11T01:14:30.038Z,6.28
2023-01-11T01:16:59.738Z,6.26
2023-01-11T01:19:29.037Z,6.20
2023-01-11T01:21:57.440Z,6.09
2023-01-11T01:24:28.212Z,5.99
2023-01-11T01:26:56.225Z,5.86
2023-01-11T01:29:25.799Z,5.88
2023-01-11T01:31:53.915Z,6.05
2023-01-11T01:34:21.607Z,6.09
2023-01-11T01:36:49.662Z,6.00
2023-01-11T01:39:17.737Z,6.04
2023-01-11T01:41:45.463Z,6.13
2023-01-11T01:44:55.288Z,6.03
2023-01-11T01:47:27.851Z,5.84
2023-01-11T01:49:55.980Z,6.11
2023-01-11T01:52:28.914Z,6.03
2023-01-11T01:55:01.848Z,6.06
2023-01-11T01:57:34.127Z,6.29
2023-01-11T02:00:07.256Z,6.40
2023-01-11T02:02:37.052Z,6.43
2023-01-11T02:05:07.088Z,6.41
2023-01-11T02:07:37.359Z,6.51
2023-01-11T02:10:07.942Z,6.59
2023-01-11T02:12:39.652Z,6.57
2023-01-11T02:15:11.433Z,6.46
2023-01-11T02:17:39.267Z,6.58
2023-01-11T02:20:27.903Z,6.64
2023-01-11T02:23:21.528Z,6.54
2023-01-11T02:26:14.326Z,6.42
2023-01-11T02:28:53.040Z,6.29
2023-01-11T02:31:30.043Z,6.18
2023-01-11T02:34:11.126Z,6.14
2023-01-11T02:36:49.930Z,6.23
2023-01-11T02:39:28.183Z,6.14
2023-01-11T02:42:19.882Z,5.83
2023-01-11T02:45:03.201Z,5.76
2023-01-11T02:47:40.569Z,5.80
2023-01-11T02:50:15.178Z,5.75
2023-01-11T02:52:50.534Z,5.79
2023-01-11T02:55:23.554Z,5.81
2023-01-11T02:57:55.407Z,5.96
2023-01-11T03:00:25.927Z,6.04
2023-01-11T03:03:09.853Z,6.02
2023-01-11T03:05:42.967Z,6.04
2023-01-11T03:08:26.613Z,6.07
2023-01-11T03:11:04.649Z,6.10
2023-01-11T03:13:45.415Z,6.05
2023-01-11T03:16:24.456Z,6.20
2023-01-11T03:19:01.189Z,6.17
2023-01-11T03:21:42.185Z,6.30
2023-01-11T03:24:17.791Z,6.38
2023-01-11T03:26:54.945Z,6.24
2023-01-11T03:29:30.436Z,6.26
2023-01-11T03:32:15.515Z,6.31
2023-01-11T03:34:50.998Z,6.47
2023-01-11T03:37:23.914Z,6.52
2023-01-11T03:40:03.902Z,6.53
2023-01-11T03:42:33.972Z,6.46
2023-01-11T03:45:04.000Z,6.43
2023-01-11T03:47:35.290Z,6.54
2023-01-11T03:50:08.060Z,6.60
2023-01-11T03:52:39.126Z,6.57
2023-01-11T03:55:11.332Z,6.69
2023-01-11T03:57:43.953Z,6.66
2023-01-11T04:00:12.723Z,6.58
2023-01-11T04:02:42.364Z,6.70
2023-01-11T04:05:11.873Z,6.72
2023-01-11T04:07:39.624Z,6.67
2023-01-11T04:10:08.648Z,6.63
2023-01-11T04:12:36.456Z,6.53
2023-01-11T04:15:05.281Z,6.61
2023-01-11T04:17:33.469Z,6.48
2023-01-11T04:20:02.527Z,6.49
2023-01-11T04:22:30.291Z,6.48
2023-01-11T04:24:58.024Z,6.54
2023-01-11T04:27:25.921Z,6.56
2023-01-11T04:29:53.829Z,6.72
2023-01-11T04:32:21.549Z,6.60
2023-01-11T04:34:50.492Z,6.64
2023-01-11T04:37:19.894Z,6.67
2023-01-11T04:39:47.659Z,6.70
2023-01-11T04:42:20.371Z,6.69
2023-01-11T04:44:49.131Z,6.69
2023-01-11T04:47:17.644Z,6.77
2023-01-11T04:49:45.818Z,6.82
2023-01-11T04:52:15.832Z,6.86
2023-01-11T04:54:45.493Z,6.87
2023-01-11T04:57:15.381Z,6.83
2023-01-11T04:59:43.280Z,6.89
2023-01-11T05:02:11.336Z,6.84
2023-01-11T05:04:39.045Z,6.76
2023-01-11T05:07:08.218Z,6.73
2023-01-11T05:09:36.267Z,6.69
2023-01-11T05:12:06.093Z,6.72
2023-01-11T05:14:33.858Z,6.95
2023-01-11T05:17:01.602Z,6.92
2023-01-11T05:19:29.758Z,6.94
2023-01-11T05:21:57.608Z,7.03
2023-01-11T05:24:25.334Z,6.97
2023-01-11T05:26:53.337Z,7.03
2023-01-11T05:29:22.489Z,7.19
2023-01-11T05:31:51.220Z,7.13
2023-01-11T05:34:19.841Z,7.16
2023-01-11T05:36:47.676Z,7.12
2023-01-11T05:39:16.154Z,7.27
2023-01-11T05:41:44.108Z,7.17
2023-01-11T05:44:31.541Z,7.21
2023-01-11T05:47:00.903Z,7.18
2023-01-11T05:49:28.668Z,7.24
2023-01-11T05:51:56.661Z,7.18
2023-01-11T05:54:24.445Z,7.13
2023-01-11T05:56:52.628Z,7.05
2023-01-11T05:59:20.979Z,7.09
2023-01-11T06:01:50.058Z,7.06
2023-01-11T06:04:19.201Z,7.02
2023-01-11T06:06:47.016Z,7.03
2023-01-11T06:09:14.856Z,7.01
2023-01-11T06:11:42.916Z,7.06
2023-01-11T06:14:10.746Z,7.09
2023-01-11T06:16:38.615Z,7.06
2023-01-11T06:19:06.792Z,7.06
2023-01-11T06:21:36.055Z,7.08
2023-01-11T06:24:04.170Z,7.10
2023-01-11T06:26:32.289Z,7.06
2023-01-11T06:29:00.001Z,7.05
2023-01-11T06:31:28.106Z,7.02
2023-01-11T06:33:55.878Z,7.04
2023-01-11T06:36:23.671Z,7.11
2023-01-11T06:38:53.505Z,6.98
2023-01-11T06:41:21.315Z,7.02
2023-01-11T06:43:49.153Z,7.01
2023-01-11T06:46:19.226Z,6.98
2023-01-11T06:48:47.921Z,6.95
2023-01-11T06:51:16.818Z,6.95
2023-01-11T06:53:46.267Z,6.86
2023-01-11T06:56:17.437Z,6.76
2023-01-11T06:58:47.124Z,6.73
2023-01-11T07:01:15.505Z,6.85
2023-01-11T07:03:44.181Z,6.78
2023-01-11T07:06:11.977Z,6.68
2023-01-11T07:08:39.695Z,6.73
2023-01-11T07:11:07.450Z,6.85
2023-01-11T07:13:36.700Z,6.80
2023-01-11T07:16:04.624Z,6.76
2023-01-11T07:18:33.529Z,6.69
2023-01-11T07:21:02.414Z,6.60
2023-01-11T07:23:30.613Z,6.51
2023-01-11T07:25:58.418Z,6.33
2023-01-11T07:28:28.373Z,6.41
2023-01-11T07:30:59.895Z,6.34
2023-01-11T07:33:28.719Z,6.48
2023-01-11T07:35:58.346Z,6.50
2023-01-11T07:38:26.130Z,6.57
2023-01-11T07:40:53.905Z,6.63
2023-01-11T07:43:23.242Z,6.64
2023-01-11T07:45:53.402Z,6.53
2023-01-11T07:48:26.873Z,6.89
2023-01-11T07:50:55.743Z,6.87
2023-01-11T07:53:25.511Z,6.95
2023-01-11T07:55:53.452Z,7.05
2023-01-11T07:58:21.290Z,7.14
2023-01-11T08:00:50.256Z,7.09
2023-01-11T08:03:18.083Z,7.31
2023-01-11T08:05:50.788Z,7.42
2023-01-11T08:08:18.552Z,7.42
2023-01-11T08:10:46.337Z,7.51
2023-01-11T08:13:32.435Z,7.43
2023-01-11T08:16:01.323Z,7.44
2023-01-11T08:18:29.340Z,7.55
2023-01-11T08:20:58.483Z,7.79
2023-01-11T08:23:27.439Z,7.81
2023-01-11T08:25:58.160Z,7.91
2023-01-11T08:28:26.303Z,8.16
2023-01-11T08:30:54.157Z,8.10
2023-01-11T08:33:21.987Z,7.91
2023-01-11T08:35:49.708Z,7.92
2023-01-11T08:38:19.027Z,8.16
2023-01-11T08:40:46.729Z,8.26
2023-01-11T08:43:14.908Z,8.26
2023-01-11T08:45:42.684Z,8.38
2023-01-11T08:48:12.461Z,8.42
2023-01-11T08:50:40.247Z,8.37
2023-01-11T08:53:07.998Z,8.64
2023-01-11T08:55:37.300Z,8.61
2023-01-11T08:58:05.041Z,8.67
2023-01-11T09:00:32.798Z,8.64
2023-01-11T09:03:03.642Z,8.60
2023-01-11T09:05:31.495Z,8.69
2023-01-11T09:07:59.248Z,8.67
2023-01-11T09:10:27.334Z,8.74
2023-01-11T09:12:56.981Z,8.84
2023-01-11T09:15:26.497Z,8.84
2023-01-11T09:17:54.840Z,8.80
2023-01-11T09:20:22.967Z,8.82
2023-01-11T09:22:53.187Z,8.82
2023-01-11T09:25:22.126Z,8.90
2023-01-11T09:27:52.245Z,8.93
2023-01-11T09:30:23.967Z,8.86
2023-01-11T09:32:53.010Z,8.91
2023-01-11T09:35:21.951Z,8.96
2023-01-11T09:37:50.418Z,9.00
2023-01-11T09:40:22.582Z,9.02
2023-01-11T09:42:53.167Z,8.97
2023-01-11T09:45:24.577Z,9.07
2023-01-11T09:48:00.937Z,9.19
2023-01-11T09:50:31.639Z,9.34
2023-01-11T09:53:03.373Z,9.55
2023-01-11T09:55:36.282Z,9.65
2023-01-11T09:58:22.903Z,9.72
2023-01-11T10:01:01.942Z,9.65
2023-01-11T10:03:47.629Z,9.53
2023-01-11T10:06:23.028Z,9.51
2023-01-11T10:18:26.523Z,9.30
2023-01-11T10:18:48.836Z,9.50
2023-01-11T10:21:15.154Z,9.49
2023-01-11T10:23:51.021Z,9.41
2023-01-11T10:26:28.353Z,9.40
2023-01-11T10:29:20.624Z,9.27
2023-01-11T10:32:09.655Z,9.14
2023-01-11T10:34:59.847Z,9.12
2023-01-11T10:37:48.192Z,9.10
2023-01-11T10:40:41.141Z,8.92
2023-01-11T10:43:17.059Z,8.85
2023-01-11T10:45:50.831Z,8.75
2023-01-11T10:48:23.857Z,8.49
2023-01-11T10:51:01.673Z,8.59
2023-01-11T10:53:36.862Z,8.38
2023-01-11T10:56:15.733Z,8.40
2023-01-11T10:59:08.465Z,8.43
2023-01-11T11:01:56.343Z,8.53
2023-01-11T11:04:52.025Z,8.45
2023-01-11T11:07:27.229Z,8.44
2023-01-11T11:10:03.529Z,8.41
2023-01-11T11:12:33.730Z,8.26
2023-01-11T11:15:10.124Z,8.26
2023-01-11T11:17:41.317Z,8.07
2023-01-11T11:20:15.219Z,8.08
2023-01-11T11:22:45.535Z,8.03
2023-01-11T11:25:17.811Z,7.95
2023-01-11T11:27:49.883Z,7.85
2023-01-11T11:30:29.297Z,7.83
2023-01-11T11:33:01.262Z,7.81
2023-01-11T11:35:35.813Z,7.70
2023-01-11T11:38:05.799Z,7.70
2023-01-11T11:40:36.353Z,7.69
2023-01-11T11:43:12.843Z,7.78
2023-01-11T11:45:51.867Z,7.69
2023-01-11T11:48:19.977Z,7.75
2023-01-11T11:50:49.332Z,7.69
2023-01-11T11:53:43.045Z,7.70
2023-01-11T11:56:21.838Z,7.69
2023-01-11T11:58:50.140Z,7.60
2023-01-11T12:01:25.516Z,7.64
2023-01-11T12:03:56.729Z,7.59
2023-01-11T12:06:27.911Z,7.62
2023-01-11T12:09:00.020Z,7.63
2023-01-11T12:11:35.010Z,7.49
2023-01-11T12:14:07.704Z,7.50
2023-01-11T12:16:39.860Z,7.59
2023-01-11T12:19:27.138Z,7.55
2023-01-11T12:21:55.258Z,7.55
2023-01-11T12:24:28.156Z,7.58
2023-01-11T12:27:08.062Z,7.59
2023-01-11T12:29:52.223Z,7.51
2023-01-11T12:32:51.984Z,7.51
2023-01-11T12:35:35.395Z,7.50
2023-01-11T12:38:16.169Z,7.51
2023-01-11T12:41:01.607Z,7.42
2023-01-11T12:43:44.900Z,7.52
2023-01-11T12:46:22.698Z,7.56
2023-01-11T12:49:05.875Z,7.55
2023-01-11T12:51:46.597Z,7.51
2023-01-11T12:54:29.912Z,7.60
2023-01-11T12:57:12.754Z,7.52
2023-01-11T13:00:14.726Z,7.64
2023-01-11T13:03:05.611Z,7.69
2023-01-11T13:05:40.678Z,7.79
2023-01-11T13:08:17.621Z,7.63
2023-01-11T13:10:56.918Z,7.70
2023-01-11T13:13:34.379Z,7.74
2023-01-11T13:16:06.394Z,7.70
2023-01-11T13:18:42.249Z,7.71
2023-01-11T13:21:19.672Z,7.68
2023-01-11T13:23:51.288Z,7.52
2023-01-11T13:26:24.738Z,7.73
2023-01-11T13:28:58.981Z,7.67
2023-01-11T13:31:28.396Z,7.66
2023-01-11T13:34:02.658Z,7.63
2023-01-11T13:36:37.456Z,7.76
2023-01-11T13:39:14.104Z,7.78
2023-01-11T13:41:47.349Z,7.70
2023-01-11T13:44:22.307Z,7.80
2023-01-11T13:46:58.855Z,7.72
2023-01-11T13:49:38.192Z,7.77
2023-01-11T13:52:13.506Z,7.82
2023-01-11T13:54:53.607Z,7.84
2023-01-11T13:57:28.444Z,7.90
2023-01-11T14:00:06.122Z,7.90
2023-01-11T14:02:40.982Z,7.84
2023-01-11T14:05:16.230Z,7.84
2023-01-11T14:08:00.752Z,7.80
2023-01-11T14:10:39.957Z,7.80
2023-01-11T14:13:43.064Z,7.78
2023-01-11T14:16:19.929Z,7.79
2023-01-11T14:18:58.723Z,7.76
2023-01-11T14:21:31.935Z,7.72
2023-01-11T14:24:00.676Z,7.69
2023-01-11T14:26:46.135Z,7.62
2023-01-11T14:29:36.624Z,7.64
2023-01-11T14:32:45.590Z,7.67
2023-01-11T14:35:36.114Z,7.68
2023-01-11T14:38:22.100Z,7.66
2023-01-11T14:41:15.918Z,7.70
2023-01-11T14:44:06.195Z,7.64
2023-01-11T14:47:02.505Z,7.60
2023-01-11T14:49:52.846Z,7.66
2023-01-11T14:52:38.959Z,7.59
2023-01-11T14:55:16.633Z,7.67
2023-01-11T14:57:46.310Z,7.63
2023-01-11T15:00:59.526Z,7.67
2023-01-11T15:03:42.616Z,7.66
2023-01-11T15:06:17.200Z,7.67
2023-01-11T15:08:48.319Z,7.60
2023-01-11T15:11:39.109Z,7.64
2023-01-11T15:14:26.017Z,7.67
2023-01-11T15:17:15.495Z,7.64
2023-01-11T15:19:44.881Z,7.73
2023-01-11T15:22:25.604Z,7.79
2023-01-11T15:25:02.063Z,7.58
2023-01-11T15:27:34.461Z,7.75
2023-01-11T15:30:02.345Z,7.66
2023-01-11T15:32:31.948Z,7.71
2023-01-11T15:35:18.426Z,7.66
2023-01-11T15:37:57.172Z,7.70
2023-01-11T15:40:27.026Z,7.66
2023-01-11T15:43:16.609Z,7.85
2023-01-11T15:46:27.622Z,7.81
2023-01-11T15:49:40.964Z,7.76
2023-01-11T15:52:51.988Z,7.80
2023-01-11T15:56:09.946Z,7.97
2023-01-11T15:59:07.355Z,8.07
2023-01-11T16:01:48.887Z,8.00
2023-01-11T16:04:29.403Z,8.07
2023-01-11T16:06:59.922Z,8.02
2023-01-11T16:09:45.876Z,8.00
2023-01-11T16:12:35.108Z,7.96
2023-01-11T16:15:32.196Z,7.91
2023-01-11T16:18:12.229Z,7.83
2023-01-11T16:20:42.959Z,7.87
2023-01-11T16:23:20.324Z,7.89
2023-01-11T16:25:55.964Z,7.94
2023-01-11T16:28:26.233Z,7.88
2023-01-11T16:30:59.025Z,7.85
2023-01-11T16:33:29.176Z,7.91
2023-01-11T16:36:11.215Z,7.89
2023-01-11T16:38:47.870Z,7.89
2023-01-11T16:41:17.975Z,7.98
2023-01-11T16:43:55.851Z,7.92
2023-01-11T16:46:57.149Z,7.89
2023-01-11T16:49:25.246Z,7.93
2023-01-11T16:51:54.116Z,7.88
2023-01-11T16:54:26.312Z,7.90
2023-01-11T16:56:55.519Z,7.89
2023-01-11T16:59:30.506Z,7.94
2023-01-11T17:01:59.993Z,7.99
2023-01-11T17:04:30.242Z,7.91
2023-01-11T17:06:58.737Z,7.84
2023-01-11T17:09:29.560Z,7.95
2023-01-11T17:11:57.759Z,7.91
2023-01-11T17:14:47.037Z,7.91
2023-01-11T17:17:15.152Z,7.90
2023-01-11T17:19:48.903Z,7.77
2023-01-11T17:22:23.692Z,7.80
2023-01-11T17:24:55.501Z,7.78
2023-01-11T17:27:27.049Z,7.82
2023-01-11T17:29:58.431Z,7.73
2023-01-11T17:32:39.208Z,7.75
2023-01-11T17:35:12.143Z,7.73
2023-01-11T17:37:40.761Z,7.68
2023-01-11T17:40:22.061Z,7.67
2023-01-11T17:43:08.800Z,7.66
2023-01-11T17:45:39.131Z,7.68
2023-01-11T17:48:13.250Z,7.66
2023-01-11T17:50:48.462Z,7.74
2023-01-11T17:53:18.975Z,7.71
2023-01-11T17:55:54.828Z,7.67
2023-01-11T17:58:26.986Z,7.59
2023-01-11T18:01:21.728Z,7.51
2023-01-11T18:03:51.761Z,7.67
2023-01-11T18:06:35.375Z,7.61
2023-01-11T18:09:05.760Z,7.47
2023-01-11T18:11:35.894Z,7.65
2023-01-11T18:14:06.893Z,7.67
2023-01-11T18:16:36.368Z,7.59
2023-01-11T18:19:24.620Z,7.66
2023-01-11T18:21:54.895Z,7.70
2023-01-11T18:24:43.411Z,7.72
2023-01-11T18:27:27.453Z,7.73
2023-01-11T18:29:56.584Z,7.62
2023-01-11T18:32:26.933Z,7.62
2023-01-11T18:34:56.036Z,7.60
2023-01-11T18:37:23.875Z,7.71
2023-01-11T18:39:53.409Z,7.72
2023-01-11T18:42:25.609Z,7.59
2023-01-11T18:44:53.373Z,7.64
2023-01-11T18:47:23.500Z,7.49
2023-01-11T18:49:54.195Z,7.59
2023-01-11T18:52:27.319Z,7.62
2023-01-11T18:54:55.769Z,7.68
2023-01-11T18:57:24.239Z,7.59
2023-01-11T18:59:53.810Z,7.68
2023-01-11T19:02:25.038Z,7.68
2023-01-11T19:04:56.098Z,7.68
2023-01-11T19:07:24.888Z,7.68
2023-01-11T19:09:54.831Z,7.62
2023-01-11T19:12:23.330Z,7.64
2023-01-11T19:14:51.134Z,7.67
2023-01-11T19:17:19.020Z,7.68
2023-01-11T19:19:47.101Z,7.66
2023-01-11T19:22:16.404Z,7.66
2023-01-11T19:24:44.369Z,7.64
2023-01-11T19:27:13.661Z,7.55
2023-01-11T19:29:41.936Z,7.49
2023-01-11T19:32:10.129Z,7.36
2023-01-11T19:34:39.600Z,7.24
2023-01-11T19:37:07.429Z,7.14
2023-01-11T19:39:36.897Z,6.99
2023-01-11T19:42:04.838Z,7.10
2023-01-11T19:44:33.844Z,7.03
2023-01-11T19:47:11.253Z,6.92
2023-01-11T19:49:39.769Z,6.88
2023-01-11T19:52:13.728Z,6.61
2023-01-11T19:54:44.108Z,6.61
2023-01-11T19:57:14.187Z,6.43
2023-01-11T19:59:42.170Z,6.38
2023-01-11T20:02:12.872Z,6.33
2023-01-11T20:04:41.905Z,6.23
2023-01-11T20:07:11.221Z,6.35
2023-01-11T20:09:39.604Z,6.21
2023-01-11T20:12:10.072Z,6.35
2023-01-11T20:14:40.409Z,6.25
2023-01-11T20:17:08.449Z,6.13
2023-01-11T20:19:36.505Z,6.15
2023-01-11T20:22:04.625Z,6.12
2023-01-11T20:24:32.510Z,6.09
2023-01-11T20:27:02.915Z,6.15
2023-01-11T20:29:32.410Z,6.23
2023-01-11T20:32:18.609Z,6.37
2023-01-11T20:34:47.921Z,6.33
2023-01-11T20:37:16.396Z,6.27
2023-01-11T20:39:44.625Z,6.26
2023-01-11T20:42:12.624Z,6.54
2023-01-11T20:44:41.820Z,6.45
2023-01-11T20:47:09.607Z,6.27
2023-01-11T20:49:37.407Z,6.37
2023-01-11T20:52:05.593Z,6.45
2023-01-11T20:54:33.765Z,6.30
2023-01-11T20:57:05.669Z,6.11
2023-01-11T20:59:33.582Z,6.01
2023-01-11T21:02:02.686Z,5.99
2023-01-11T21:04:30.843Z,6.27
2023-01-11T21:06:58.623Z,6.13
2023-01-11T21:09:26.410Z,6.06
2023-01-11T21:11:54.600Z,6.18
2023-01-11T21:14:23.021Z,6.04
2023-01-11T21:16:50.793Z,6.14
2023-01-11T21:19:20.182Z,6.00
2023-01-11T21:21:49.748Z,5.96
2023-01-11T21:24:17.763Z,5.89
2023-01-11T21:26:45.990Z,6.01
2023-01-11T21:29:14.292Z,6.20
2023-01-11T21:31:42.626Z,5.94
2023-01-11T21:34:12.323Z,5.87
2023-01-11T21:36:41.995Z,5.76
2023-01-11T21:39:14.078Z,5.69
2023-01-11T21:41:58.179Z,5.74
2023-01-11T21:44:31.863Z,5.66
2023-01-11T21:47:00.176Z,5.59
2023-01-11T21:49:28.267Z,5.55
2023-01-11T21:51:57.416Z,5.52
2023-01-11T21:54:25.413Z,5.49
2023-01-11T21:56:53.232Z,5.52
2023-01-11T21:59:21.584Z,5.32
2023-01-11T22:01:49.892Z,5.39
2023-01-11T22:04:19.347Z,5.36
2023-01-11T22:06:51.605Z,5.37
2023-01-11T22:09:21.662Z,5.50
2023-01-11T22:11:50.950Z,5.48
2023-01-11T22:14:20.223Z,5.47
2023-01-11T22:16:48.132Z,5.57
2023-01-11T22:19:16.070Z,5.80
2023-01-11T22:21:43.861Z,5.84
2023-01-11T22:24:13.532Z,5.82
2023-01-11T22:26:42.769Z,5.74
2023-01-11T22:29:15.148Z,5.63
2023-01-11T22:31:47.163Z,5.45
2023-01-11T22:34:16.423Z,5.27
2023-01-11T22:36:45.189Z,5.28
2023-01-11T22:39:14.390Z,5.27
2023-01-11T22:41:45.616Z,5.35
2023-01-11T22:44:14.702Z,5.79
2023-01-11T22:46:43.346Z,5.69
2023-01-11T22:49:11.736Z,5.64
2023-01-11T22:51:41.635Z,5.59
2023-01-11T22:54:10.199Z,5.50
2023-01-11T22:56:38.005Z,5.43
2023-01-11T22:59:07.445Z,5.33
2023-01-11T23:01:37.237Z,5.27
2023-01-11T23:04:06.852Z,5.19
2023-01-11T23:06:36.161Z,5.23
2023-01-11T23:09:04.949Z,5.16
2023-01-11T23:11:55.060Z,5.22
2023-01-11T23:14:29.800Z,5.19
2023-01-11T23:16:59.815Z,5.15
2023-01-11T23:19:27.534Z,5.15
2023-01-11T23:21:55.837Z,5.17
2023-01-11T23:24:23.804Z,5.14
2023-01-11T23:26:51.699Z,5.05
2023-01-11T23:29:19.510Z,4.99
2023-01-11T23:31:49.069Z,4.99
2023-01-11T23:34:17.372Z,5.35
2023-01-11T23:36:45.370Z,5.35
2023-01-11T23:39:15.126Z,5.47
2023-01-11T23:42:00.545Z,5.42
2023-01-11T23:44:28.931Z,5.45
2023-01-11T23:47:15.606Z,5.73
2023-01-11T23:49:44.348Z,5.75
2023-01-11T23:52:12.347Z,5.74
2023-01-11T23:54:40.270Z,5.88
2023-01-11T23:57:09.258Z,5.78
2023-01-11T23:59:37.110Z,5.66
